createdAt,value
2022-11-24T00:00:10.385Z,101404.00
2022-11-24T00:02:39.142Z,101416.00
2022-11-24T00:05:09.413Z,101411.00
2022-11-24T00:07:38.200Z,101414.00
2022-11-24T00:10:09.621Z,101422.00
2022-11-24T00:12:38.291Z,101418.00
2022-11-24T00:15:07.957Z,101417.00
2022-11-24T00:17:36.833Z,101412.00
2022-11-24T00:20:06.707Z,101418.00
2022-11-24T00:22:35.285Z,101408.00
2022-11-24T00:25:04.098Z,101397.00
2022-11-24T00:27:34.258Z,101406.00
2022-11-24T00:30:02.970Z,101410.00
2022-11-24T00:32:33.021Z,101411.00
2022-11-24T00:35:01.710Z,101417.00
2022-11-24T00:37:31.633Z,101411.00
2022-11-24T00:40:00.544Z,101419.00
2022-11-24T00:42:29.151Z,101427.00
2022-11-24T00:44:59.132Z,101415.00
2022-11-24T00:47:28.877Z,101431.00
2022-11-24T00:49:57.539Z,101429.00
2022-11-24T00:52:26.190Z,101431.00
2022-11-24T00:54:54.959Z,101426.00
2022-11-24T00:57:23.609Z,101429.00
2022-11-24T00:59:52.246Z,101416.00
2022-11-24T01:02:22.341Z,101411.00
2022-11-24T01:04:51.189Z,101419.00
2022-11-24T01:07:19.836Z,101416.00
2022-11-24T01:09:48.414Z,101410.00
2022-11-24T01:12:16.984Z,101408.00
2022-11-24T01:14:45.616Z,101411.00
2022-11-24T01:17:14.261Z,101407.00
2022-11-24T01:19:47.219Z,101408.00
2022-11-24T01:22:15.892Z,101408.00
2022-11-24T01:24:45.785Z,101413.00
2022-11-24T01:27:14.373Z,101420.00
2022-11-24T01:29:42.985Z,101412.00
2022-11-24T01:32:11.759Z,101413.00
2022-11-24T01:34:40.462Z,101407.00
2022-11-24T01:37:10.641Z,101409.00
2022-11-24T01:39:39.237Z,101405.00
2022-11-24T01:42:08.994Z,101414.00
2022-11-24T01:44:37.669Z,101407.00
2022-11-24T01:47:17.913Z,101410.00
2022-11-24T01:49:51.388Z,101402.00
2022-11-24T01:52:27.227Z,101419.00
2022-11-24T01:55:01.937Z,101417.00
2022-11-24T01:57:39.241Z,101410.00
2022-11-24T02:00:12.667Z,101409.00
2022-11-24T02:02:46.575Z,101410.00
2022-11-24T02:05:22.602Z,101397.00
2022-11-24T02:07:57.055Z,101413.00
2022-11-24T02:10:27.194Z,101405.00
2022-11-24T02:13:01.374Z,101411.00
2022-11-24T02:15:30.927Z,101412.00
2022-11-24T02:18:00.821Z,101415.00
2022-11-24T02:20:33.847Z,101417.00
2022-11-24T02:23:16.768Z,101424.00
2022-11-24T02:26:00.562Z,101424.00
2022-11-24T02:28:32.621Z,101416.00
2022-11-24T02:31:03.141Z,101417.00
2022-11-24T02:33:32.320Z,101416.00
2022-11-24T02:36:01.027Z,101427.00
2022-11-24T02:38:32.441Z,101429.00
2022-11-24T02:41:05.222Z,101429.00
2022-11-24T02:43:43.642Z,101428.00
2022-11-24T02:46:12.454Z,101430.00
2022-11-24T02:48:41.243Z,101429.00
2022-11-24T02:51:09.948Z,101428.00
2022-11-24T02:53:38.798Z,101430.00
2022-11-24T02:56:08.860Z,101434.00
2022-11-24T02:58:38.904Z,101426.00
2022-11-24T03:01:08.120Z,101433.00
2022-11-24T03:03:38.462Z,101434.00
2022-11-24T03:06:07.543Z,101432.00
2022-11-24T03:08:36.203Z,101440.00
2022-11-24T03:11:05.251Z,101437.00
2022-11-24T03:13:35.427Z,101443.00
2022-11-24T03:16:10.211Z,101434.00
2022-11-24T03:18:39.134Z,101435.00
2022-11-24T03:21:08.195Z,101441.00
2022-11-24T03:23:41.692Z,101437.00
2022-11-24T03:26:13.407Z,101449.00
2022-11-24T03:28:43.764Z,101448.00
2022-11-24T03:31:14.563Z,101440.00
2022-11-24T03:33:43.655Z,101447.00
2022-11-24T03:36:13.917Z,101453.00
2022-11-24T03:38:42.539Z,101456.00
2022-11-24T03:41:11.477Z,101454.00
2022-11-24T03:43:43.719Z,101449.00
2022-11-24T03:46:14.790Z,101451.00
2022-11-24T03:48:43.466Z,101437.00
2022-11-24T03:51:12.823Z,101458.00
2022-11-24T03:53:41.542Z,101463.00
2022-11-24T03:56:11.675Z,101464.00
2022-11-24T03:58:41.770Z,101469.00
2022-11-24T04:01:10.483Z,101469.00
2022-11-24T04:03:41.177Z,101471.00
2022-11-24T04:06:09.904Z,101467.00
2022-11-24T04:08:38.540Z,101475.00
2022-11-24T04:11:09.675Z,101474.00
2022-11-24T04:13:39.955Z,101475.00
2022-11-24T04:16:09.601Z,101483.00
2022-11-24T04:18:38.284Z,101479.00
2022-11-24T04:21:08.416Z,101483.00
2022-11-24T04:23:39.303Z,101483.00
2022-11-24T04:26:11.824Z,101486.00
2022-11-24T04:28:40.877Z,101483.00
2022-11-24T04:31:09.610Z,101468.00
2022-11-24T04:33:38.292Z,101476.00
2022-11-24T04:36:09.095Z,101475.00
2022-11-24T04:39:19.760Z,101474.00
2022-11-24T04:41:26.531Z,101475.00
2022-11-24T04:43:56.003Z,101476.00
2022-11-24T04:46:32.586Z,101472.00
2022-11-24T04:49:06.194Z,101475.00
2022-11-24T04:51:36.257Z,101481.00
2022-11-24T04:54:05.008Z,101486.00
2022-11-24T04:56:33.790Z,101476.00
2022-11-24T04:59:08.018Z,101484.00
2022-11-24T05:01:38.300Z,101478.00
2022-11-24T05:04:08.305Z,101488.00
2022-11-24T05:06:41.060Z,101488.00
2022-11-24T05:09:17.074Z,101490.00
2022-11-24T05:11:45.845Z,101494.00
2022-11-24T05:14:14.482Z,101495.00
2022-11-24T05:16:43.256Z,101511.00
2022-11-24T05:19:13.035Z,101518.00
2022-11-24T05:21:43.184Z,101516.00
2022-11-24T05:24:12.320Z,101515.00
2022-11-24T05:26:42.163Z,101519.00
2022-11-24T05:29:11.083Z,101531.00
2022-11-24T05:31:40.469Z,101532.00
2022-11-24T05:34:10.409Z,101535.00
2022-11-24T05:37:01.673Z,101527.00
2022-11-24T05:39:33.467Z,101534.00
2022-11-24T05:42:23.359Z,101538.00
2022-11-24T05:44:52.306Z,101533.00
2022-11-24T05:47:21.941Z,101539.00
2022-11-24T05:49:52.880Z,101540.00
2022-11-24T05:52:21.851Z,101533.00
2022-11-24T05:54:52.371Z,101539.00
2022-11-24T05:57:21.301Z,101540.00
2022-11-24T05:59:50.350Z,101549.00
2022-11-24T06:02:20.092Z,101544.00
2022-11-24T06:04:51.242Z,101550.00
2022-11-24T06:07:22.337Z,101555.00
2022-11-24T06:09:52.778Z,101551.00
2022-11-24T06:12:23.024Z,101561.00
2022-11-24T06:14:54.502Z,101558.00
2022-11-24T06:17:25.659Z,101559.00
2022-11-24T06:19:54.869Z,101563.00
2022-11-24T06:22:23.985Z,101565.00
2022-11-24T06:24:54.594Z,101570.00
2022-11-24T06:27:23.754Z,101577.00
2022-11-24T06:29:52.952Z,101570.00
2022-11-24T06:32:22.466Z,101573.00
2022-11-24T06:34:52.634Z,101575.00
2022-11-24T06:37:21.652Z,101576.00
2022-11-24T06:39:55.754Z,101578.00
2022-11-24T06:42:24.537Z,101584.00
2022-11-24T06:44:53.276Z,101584.00
2022-11-24T06:47:22.192Z,101574.00
2022-11-24T06:49:50.827Z,101581.00
2022-11-24T06:52:19.633Z,101581.00
2022-11-24T06:54:51.998Z,101586.00
2022-11-24T06:57:22.548Z,101590.00
2022-11-24T06:59:51.356Z,101587.00
2022-11-24T07:02:20.316Z,101590.00
2022-11-24T07:04:48.984Z,101598.00
2022-11-24T07:07:17.692Z,101600.00
2022-11-24T07:09:46.428Z,101604.00
2022-11-24T07:12:15.144Z,101612.00
2022-11-24T07:14:45.653Z,101609.00
2022-11-24T07:17:16.436Z,101607.00
2022-11-24T07:19:45.131Z,101609.00
2022-11-24T07:22:16.584Z,101615.00
2022-11-24T07:24:45.467Z,101608.00
2022-11-24T07:27:14.220Z,101609.00
2022-11-24T07:29:44.319Z,101623.00
2022-11-24T07:32:14.265Z,101614.00
2022-11-24T07:34:47.169Z,101605.00
2022-11-24T07:37:15.914Z,101599.00
2022-11-24T07:39:44.594Z,101606.00
2022-11-24T07:42:34.165Z,101619.00
2022-11-24T07:45:05.792Z,101613.00
2022-11-24T07:47:34.466Z,101627.00
2022-11-24T07:50:03.234Z,101622.00
2022-11-24T07:52:32.003Z,101631.00
2022-11-24T07:55:00.716Z,101618.00
2022-11-24T07:57:29.839Z,101623.00
2022-11-24T07:59:58.796Z,101626.00
2022-11-24T08:02:30.757Z,101626.00
2022-11-24T08:04:59.399Z,101626.00
2022-11-24T08:07:28.202Z,101631.00
2022-11-24T08:09:57.019Z,101628.00
2022-11-24T08:12:26.380Z,101636.00
2022-11-24T08:14:54.992Z,101641.00
2022-11-24T08:17:23.677Z,101640.00
2022-11-24T08:19:53.931Z,101633.00
2022-11-24T08:22:23.862Z,101644.00
2022-11-24T08:24:52.836Z,101628.00
2022-11-24T08:27:21.931Z,101651.00
2022-11-24T08:29:50.573Z,101645.00
2022-11-24T08:32:22.463Z,101625.00
2022-11-24T08:35:08.558Z,101634.00
2022-11-24T08:37:43.300Z,101644.00
2022-11-24T08:40:14.039Z,101649.00
2022-11-24T08:42:43.196Z,101645.00
2022-11-24T08:45:21.091Z,101648.00
2022-11-24T08:47:55.895Z,101656.00
2022-11-24T08:50:27.297Z,101659.00
2022-11-24T08:52:56.235Z,101666.00
2022-11-24T08:55:24.847Z,101668.00
2022-11-24T08:57:53.480Z,101676.00
2022-11-24T09:00:23.853Z,101671.00
2022-11-24T09:02:57.868Z,101678.00
2022-11-24T09:08:16.699Z,101671.00
2022-11-24T09:10:46.866Z,101676.00
2022-11-24T09:13:15.569Z,101675.00
2022-11-24T09:15:44.426Z,101679.00
2022-11-24T09:18:13.365Z,101684.00
2022-11-24T09:20:43.365Z,101687.00
2022-11-24T09:23:12.116Z,101684.00
2022-11-24T09:25:40.831Z,101682.00
2022-11-24T09:28:09.420Z,101678.00
2022-11-24T09:30:38.265Z,101686.00
2022-11-24T09:33:06.955Z,101674.00
2022-11-24T09:35:39.508Z,101678.00
2022-11-24T09:38:10.384Z,101679.00
2022-11-24T09:40:39.518Z,101674.00
2022-11-24T09:43:20.522Z,101683.00
2022-11-24T09:46:06.799Z,101684.00
2022-11-24T09:48:40.792Z,101672.00
2022-11-24T09:51:15.080Z,101671.00
2022-11-24T09:53:54.624Z,101682.00
2022-11-24T09:56:28.898Z,101690.00
2022-11-24T09:59:04.356Z,101686.00
2022-11-24T10:01:37.029Z,101679.00
2022-11-24T10:04:16.287Z,101684.00
2022-11-24T10:06:57.305Z,101686.00
2022-11-24T10:09:47.197Z,101688.00
2022-11-24T10:12:40.085Z,101682.00
2022-11-24T10:15:28.197Z,101685.00
2022-11-24T10:18:30.291Z,101684.00
2022-11-24T10:21:20.339Z,101678.00
2022-11-24T10:24:22.487Z,101675.00
2022-11-24T10:27:19.394Z,101682.00
2022-11-24T10:30:06.429Z,101686.00
2022-11-24T10:32:42.426Z,101685.00
2022-11-24T10:35:20.976Z,101675.00
2022-11-24T10:38:01.850Z,101677.00
2022-11-24T10:40:56.612Z,101677.00
2022-11-24T10:43:29.753Z,101680.00
2022-11-24T10:46:13.901Z,101678.00
2022-11-24T10:48:49.248Z,101674.00
2022-11-24T10:51:51.751Z,101688.00
2022-11-24T10:54:24.976Z,101691.00
2022-11-24T10:56:56.601Z,101685.00
2022-11-24T10:59:57.746Z,101682.00
2022-11-24T11:02:38.688Z,101683.00
2022-11-24T11:05:44.180Z,101685.00
2022-11-24T11:08:42.832Z,101692.00
2022-11-24T11:11:21.877Z,101691.00
2022-11-24T11:14:03.065Z,101682.00
2022-11-24T11:16:57.640Z,101682.00
2022-11-24T11:19:49.730Z,101686.00
2022-11-24T11:22:34.102Z,101679.00
2022-11-24T11:25:19.409Z,101680.00
2022-11-24T11:27:49.796Z,101677.00
2022-11-24T11:36:18.410Z,101679.00
2022-11-24T11:38:49.497Z,101683.00
2022-11-24T11:41:25.600Z,101688.00
2022-11-24T11:44:11.566Z,101680.00
2022-11-24T11:46:43.051Z,101677.00
2022-11-24T11:49:14.833Z,101691.00
2022-11-24T11:52:08.312Z,101698.00
2022-11-24T11:54:58.082Z,101705.00
2022-11-24T11:57:39.574Z,101711.00
2022-11-24T12:00:20.303Z,101702.00
2022-11-24T12:03:24.327Z,101703.00
2022-11-24T12:06:10.902Z,101692.00
2022-11-24T12:09:19.221Z,101697.00
2022-11-24T12:11:54.512Z,101702.00
2022-11-24T12:14:41.919Z,101700.00
2022-11-24T12:17:25.726Z,101706.00
2022-11-24T12:20:20.317Z,101693.00
2022-11-24T12:23:25.171Z,101695.00
2022-11-24T12:26:05.680Z,101687.00
2022-11-24T12:29:06.936Z,101690.00
2022-11-24T12:31:48.167Z,101697.00
2022-11-24T12:34:45.203Z,101691.00
2022-11-24T12:37:37.746Z,101681.00
2022-11-24T12:40:25.155Z,101693.00
2022-11-24T12:43:09.223Z,101686.00
2022-11-24T12:45:47.250Z,101691.00
2022-11-24T12:48:33.238Z,101702.00
2022-11-24T12:51:07.164Z,101704.00
2022-11-24T12:53:39.547Z,101707.00
2022-11-24T12:56:15.990Z,101702.00
2022-11-24T12:58:53.860Z,101706.00
2022-11-24T13:01:37.128Z,101718.00
2022-11-24T13:04:17.949Z,101707.00
2022-11-24T13:06:55.767Z,101710.00
2022-11-24T13:09:30.334Z,101707.00
2022-11-24T13:12:14.118Z,101701.00
2022-11-24T13:14:47.920Z,101704.00
2022-11-24T13:17:41.974Z,101701.00
2022-11-24T13:20:28.098Z,101699.00
2022-11-24T13:23:00.201Z,101702.00
2022-11-24T13:25:32.147Z,101717.00
2022-11-24T13:29:08.940Z,101711.00
2022-11-24T13:31:47.152Z,101718.00
2022-11-24T13:34:55.849Z,101733.00
2022-11-24T13:37:52.839Z,101732.00
2022-11-24T13:40:59.908Z,101732.00
2022-11-24T13:43:36.914Z,101739.00
2022-11-24T13:46:06.439Z,101732.00
2022-11-24T13:49:00.343Z,101740.00
2022-11-24T13:51:29.682Z,101739.00
2022-11-24T13:54:01.240Z,101741.00
2022-11-24T13:56:32.953Z,101743.00
2022-11-24T13:59:19.407Z,101745.00
2022-11-24T14:01:59.084Z,101749.00
2022-11-24T14:04:31.399Z,101742.00
2022-11-24T14:07:09.111Z,101752.00
2022-11-24T14:09:46.827Z,101746.00
2022-11-24T14:12:23.451Z,101750.00
2022-11-24T14:14:56.797Z,101744.00
2022-11-24T14:17:28.558Z,101760.00
2022-11-24T14:19:59.542Z,101756.00
2022-11-24T14:22:37.936Z,101755.00
2022-11-24T14:25:20.446Z,101767.00
2022-11-24T14:27:49.075Z,101759.00
2022-11-24T14:30:23.538Z,101760.00
2022-11-24T14:32:57.661Z,101770.00
2022-11-24T14:35:30.814Z,101764.00
2022-11-24T14:38:00.308Z,101767.00
2022-11-24T14:40:42.057Z,101773.00
2022-11-24T14:43:31.485Z,101776.00
2022-11-24T14:46:12.287Z,101781.00
2022-11-24T14:48:50.256Z,101779.00
2022-11-24T14:51:26.082Z,101788.00
2022-11-24T14:54:00.244Z,101779.00
2022-11-24T14:56:33.236Z,101785.00
2022-11-24T14:59:02.086Z,101775.00
2022-11-24T15:01:36.286Z,101786.00
2022-11-24T15:04:54.578Z,101777.00
2022-11-24T15:07:27.144Z,101776.00
2022-11-24T15:09:58.886Z,101779.00
2022-11-24T15:12:35.519Z,101775.00
2022-11-24T15:15:07.847Z,101776.00
2022-11-24T15:17:38.470Z,101780.00
2022-11-24T15:20:18.179Z,101766.00
2022-11-24T15:22:52.325Z,101788.00
2022-11-24T15:25:31.288Z,101778.00
2022-11-24T15:28:00.456Z,101780.00
2022-11-24T15:30:29.635Z,101779.00
2022-11-24T15:33:00.927Z,101796.00
2022-11-24T15:35:33.756Z,101788.00
2022-11-24T15:38:02.432Z,101785.00
2022-11-24T15:40:32.330Z,101782.00
2022-11-24T15:43:06.291Z,101785.00
2022-11-24T15:45:35.914Z,101789.00
2022-11-24T15:48:06.359Z,101790.00
2022-11-24T15:50:37.151Z,101788.00
2022-11-24T15:53:06.956Z,101790.00
2022-11-24T15:55:36.767Z,101788.00
2022-11-24T15:58:14.635Z,101797.00
2022-11-24T16:00:45.247Z,101789.00
2022-11-24T16:03:45.817Z,101782.00
2022-11-24T16:06:16.749Z,101800.00
2022-11-24T16:08:50.368Z,101791.00
2022-11-24T16:11:19.078Z,101783.00
2022-11-24T16:13:52.539Z,101793.00
2022-11-24T16:16:24.861Z,101801.00
2022-11-24T16:18:55.048Z,101805.00
2022-11-24T16:21:23.647Z,101808.00
2022-11-24T16:23:52.468Z,101823.00
2022-11-24T16:26:21.049Z,101831.00
2022-11-24T16:28:49.632Z,101830.00
2022-11-24T16:31:19.851Z,101845.00
2022-11-24T16:33:48.664Z,101854.00
2022-11-24T16:36:18.657Z,101849.00
2022-11-24T16:38:47.256Z,101859.00
2022-11-24T16:41:16.199Z,101846.00
2022-11-24T16:43:44.904Z,101855.00
2022-11-24T16:46:22.676Z,101860.00
2022-11-24T16:48:53.795Z,101858.00
2022-11-24T16:51:28.717Z,101863.00
2022-11-24T16:54:02.046Z,101870.00
2022-11-24T16:56:32.080Z,101864.00
2022-11-24T16:59:00.748Z,101869.00
2022-11-24T17:01:29.910Z,101871.00
2022-11-24T17:03:58.594Z,101865.00
2022-11-24T17:06:30.049Z,101869.00
2022-11-24T17:08:58.670Z,101864.00
2022-11-24T17:11:29.476Z,101863.00
2022-11-24T17:13:59.188Z,101865.00
2022-11-24T17:16:28.888Z,101873.00
2022-11-24T17:18:58.837Z,101875.00
2022-11-24T17:21:30.047Z,101873.00
2022-11-24T17:24:01.607Z,101876.00
2022-11-24T17:26:30.462Z,101886.00
2022-11-24T17:28:59.217Z,101890.00
2022-11-24T17:31:32.094Z,101894.00
2022-11-24T17:34:02.682Z,101902.00
2022-11-24T17:36:35.867Z,101894.00
2022-11-24T17:39:07.219Z,101896.00
2022-11-24T17:41:35.924Z,101899.00
2022-11-24T17:44:06.292Z,101907.00
2022-11-24T17:46:37.824Z,101901.00
2022-11-24T17:49:08.507Z,101899.00
2022-11-24T17:51:38.752Z,101906.00
2022-11-24T17:54:31.151Z,101902.00
2022-11-24T17:56:56.393Z,101888.00
2022-11-24T17:59:25.113Z,101900.00
2022-11-24T18:01:54.125Z,101906.00
2022-11-24T18:04:23.741Z,101907.00
2022-11-24T18:06:54.014Z,101896.00
2022-11-24T18:09:22.962Z,101901.00
2022-11-24T18:11:52.182Z,101902.00
2022-11-24T18:14:21.550Z,101909.00
2022-11-24T18:16:50.326Z,101907.00
2022-11-24T18:19:18.985Z,101900.00
2022-11-24T18:21:47.816Z,101910.00
2022-11-24T18:24:23.767Z,101904.00
2022-11-24T18:26:52.919Z,101914.00
2022-11-24T18:29:22.016Z,101907.00
2022-11-24T18:31:50.732Z,101899.00
2022-11-24T18:34:19.708Z,101901.00
2022-11-24T18:36:52.183Z,101903.00
2022-11-24T18:39:22.267Z,101909.00
2022-11-24T18:41:51.167Z,101904.00
2022-11-24T18:44:19.912Z,101918.00
2022-11-24T18:46:53.837Z,101910.00
2022-11-24T18:49:23.649Z,101915.00
2022-11-24T18:51:52.749Z,101920.00
2022-11-24T18:54:22.729Z,101916.00
2022-11-24T18:56:51.965Z,101922.00
2022-11-24T18:59:20.640Z,101924.00
2022-11-24T19:01:49.403Z,101930.00
2022-11-24T19:04:18.377Z,101916.00
2022-11-24T19:06:47.041Z,101932.00
2022-11-24T19:09:21.062Z,101938.00
2022-11-24T19:11:51.087Z,101948.00
2022-11-24T19:14:20.707Z,101934.00
2022-11-24T19:16:49.406Z,101941.00
2022-11-24T19:19:18.253Z,101937.00
2022-11-24T19:21:46.972Z,101929.00
2022-11-24T19:24:15.922Z,101930.00
2022-11-24T19:26:44.696Z,101940.00
2022-11-24T19:29:23.683Z,101946.00
2022-11-24T19:31:54.993Z,101943.00
2022-11-24T19:34:23.763Z,101955.00
2022-11-24T19:36:52.615Z,101948.00
2022-11-24T19:39:21.628Z,101950.00
2022-11-24T19:41:50.478Z,101962.00
2022-11-24T19:44:19.627Z,101959.00
2022-11-24T19:46:49.743Z,101957.00
2022-11-24T19:49:18.465Z,101959.00
2022-11-24T19:51:48.998Z,101963.00
2022-11-24T19:54:18.165Z,101971.00
2022-11-24T19:56:46.865Z,101966.00
2022-11-24T19:59:18.699Z,101971.00
2022-11-24T20:01:49.964Z,101963.00
2022-11-24T20:04:20.520Z,101962.00
2022-11-24T20:06:50.300Z,101969.00
2022-11-24T20:09:19.705Z,101969.00
2022-11-24T20:11:49.351Z,101957.00
2022-11-24T20:14:19.404Z,101961.00
2022-11-24T20:16:52.788Z,101959.00
2022-11-24T20:19:21.825Z,101972.00
2022-11-24T20:21:52.581Z,101973.00
2022-11-24T20:24:24.815Z,101965.00
2022-11-24T20:26:58.251Z,101973.00
2022-11-24T20:29:28.997Z,101984.00
2022-11-24T20:31:59.191Z,101985.00
2022-11-24T20:34:30.552Z,101981.00
2022-11-24T20:36:59.276Z,101990.00
2022-11-24T20:39:29.258Z,101976.00
2022-11-24T20:41:58.221Z,101992.00
2022-11-24T20:44:28.196Z,101993.00
2022-11-24T20:47:00.419Z,101983.00
2022-11-24T20:49:29.622Z,101969.00
2022-11-24T20:51:58.591Z,101985.00
2022-11-24T20:54:29.018Z,101983.00
2022-11-24T20:56:59.671Z,101986.00
2022-11-24T20:59:28.668Z,101992.00
2022-11-24T21:01:59.765Z,101983.00
2022-11-24T21:04:31.228Z,101981.00
2022-11-24T21:07:00.178Z,101986.00
2022-11-24T21:09:29.041Z,101990.00
2022-11-24T21:11:57.755Z,101997.00
2022-11-24T21:14:30.129Z,101999.00
2022-11-24T21:17:04.216Z,102002.00
2022-11-24T21:19:33.480Z,101994.00
2022-11-24T21:22:04.051Z,102010.00
2022-11-24T21:24:38.175Z,102010.00
2022-11-24T21:27:07.228Z,102005.00
2022-11-24T21:29:36.761Z,102010.00
2022-11-24T21:32:07.714Z,102011.00
2022-11-24T21:34:37.249Z,101997.00
2022-11-24T21:37:16.188Z,102003.00
2022-11-24T21:39:48.535Z,101999.00
2022-11-24T21:42:21.400Z,102007.00
2022-11-24T21:44:51.144Z,102009.00
2022-11-24T21:47:21.431Z,102005.00
2022-11-24T21:49:50.404Z,101984.00
2022-11-24T21:52:23.055Z,102016.00
2022-11-24T21:54:51.682Z,102012.00
2022-11-24T21:57:20.806Z,102007.00
2022-11-24T21:59:50.782Z,102006.00
2022-11-24T22:02:25.821Z,102013.00
2022-11-24T22:04:56.661Z,102022.00
2022-11-24T22:07:25.638Z,102019.00
2022-11-24T22:09:55.946Z,102032.00
2022-11-24T22:12:25.839Z,102036.00
2022-11-24T22:14:54.502Z,102023.00
2022-11-24T22:17:24.880Z,102032.00
2022-11-24T22:19:53.804Z,102038.00
2022-11-24T22:22:22.410Z,102034.00
2022-11-24T22:24:51.368Z,102044.00
2022-11-24T22:27:19.970Z,102043.00
2022-11-24T22:29:52.821Z,102047.00
2022-11-24T22:32:24.306Z,102044.00
2022-11-24T22:34:56.901Z,102039.00
2022-11-24T22:37:26.612Z,102055.00
2022-11-24T22:39:55.335Z,102041.00
2022-11-24T22:42:24.112Z,102042.00
2022-11-24T22:44:52.990Z,102049.00
2022-11-24T22:47:21.635Z,102040.00
2022-11-24T22:49:52.684Z,102044.00
2022-11-24T22:52:21.298Z,102055.00
2022-11-24T22:54:49.928Z,102046.00
2022-11-24T22:57:18.504Z,102051.00
2022-11-24T22:59:47.150Z,102054.00
2022-11-24T23:02:15.795Z,102057.00
2022-11-24T23:04:44.506Z,102069.00
2022-11-24T23:07:15.249Z,102064.00
2022-11-24T23:09:43.913Z,102071.00
2022-11-24T23:12:12.690Z,102068.00
2022-11-24T23:14:42.854Z,102068.00
2022-11-24T23:17:30.648Z,102060.00
2022-11-24T23:19:59.601Z,102066.00
2022-11-24T23:22:29.735Z,102062.00
2022-11-24T23:25:05.631Z,102067.00
2022-11-24T23:27:41.489Z,102058.00
2022-11-24T23:30:18.216Z,102067.00
2022-11-24T23:32:51.236Z,102076.00
2022-11-24T23:35:21.473Z,102077.00
2022-11-24T23:38:07.159Z,102074.00
2022-11-24T23:40:42.896Z,102063.00
2022-11-24T23:43:13.190Z,102063.00
2022-11-24T23:45:44.838Z,102074.00
2022-11-24T23:48:13.587Z,102074.00
2022-11-24T23:50:44.844Z,102058.00
2022-11-24T23:53:14.898Z,102063.00
2022-11-24T23:55:45.509Z,102069.00
2022-11-24T23:58:14.321Z,102075.00
